Sandra Hugh — WDD9019 — position and weather

sailwx.info

Track history (hours):
 
Tides and Currents Weather Stations Pressure Air Temp Water Temp Dewpoint Dewpoint Depression Visibility Wind Speed Wind Dir Waves Ship Positions

Sandra Hugh

Owner: Sortwell Inc., DBA AmNav Maritime Services, Oakland, CA. More information available from US FCC via Universal Licensing System and Coast Guard Vessel Documentation Center.

Last reported at 2017-Feb-19 11:34 UTC. Time now 2017-Feb-19 11:51 UTC.
Position N 37°49' W 122°19'.

Length 24 m; draft 4.9 m.

Type: Tug. MMSI: 367305920.

Date/timePositionNaut miles runAvg speedWind from/ knotsBaromVisibWave heightAir tempDewpointWater temp
2017-Feb-19 11:34N 37°49' W 122°19'0 0.0
2017-Feb-19 10:34N 37°49' W 122°19'0 0.0
2017-Feb-19 09:34N 37°49' W 122°19'0 0.0
2017-Feb-19 08:34N 37°49' W 122°19'0 0.0
2017-Feb-19 07:33N 37°49' W 122°19'0 0.0
2017-Feb-19 06:34N 37°49' W 122°19'0 0.0
2017-Feb-19 05:33N 37°49' W 122°19'0 0.0
2017-Feb-19 04:34N 37°49' W 122°19'0 0.0
2017-Feb-19 03:34N 37°49' W 122°19'0 0.0
2017-Feb-19 02:33N 37°49' W 122°19'0 0.0
2017-Feb-19 01:33N 37°49' W 122°19'0 0.0
2017-Feb-19 00:33N 37°49' W 122°19'0 0.0
2017-Feb-18 23:33N 37°49' W 122°19'0 0.0
2017-Feb-18 22:33N 37°49' W 122°19'2 1.6
2017-Feb-18 21:34N 37°49' W 122°20'3 2.5
2017-Feb-18 20:34N 37°48' W 122°17'4 3.6
2017-Feb-18 19:34N 37°48' W 122°22'3 2.7
2017-Feb-18 18:34N 37°49' W 122°19'0 0.0
2017-Feb-18 17:33N 37°49' W 122°19'0 0.0
2017-Feb-18 16:33N 37°49' W 122°19'1 0.9
2017-Feb-18 15:34N 37°49' W 122°19'1 1.2
2017-Feb-18 14:34N 37°48' W 122°19'1 1.1
2017-Feb-18 13:34N 37°48' W 122°17'4 3.8
2017-Feb-18 12:34N 37°48' W 122°22'3 2.8
2017-Feb-18 11:33N 37°49' W 122°19'0 0.0
2017-Feb-18 10:34N 37°49' W 122°19'0 0.0
2017-Feb-18 09:33N 37°49' W 122°19'0 0.0
2017-Feb-18 08:33N 37°49' W 122°19'0 0.0
2017-Feb-18 07:33N 37°49' W 122°19'0 0.0
2017-Feb-18 06:33N 37°49' W 122°19'0 0.0
2017-Feb-18 05:33N 37°49' W 122°19'0 0.0
2017-Feb-18 04:33N 37°49' W 122°19'0 0.0
2017-Feb-18 03:33N 37°49' W 122°19'2 1.9
2017-Feb-18 02:33N 37°48' W 122°18'1 0.8
2017-Feb-18 01:33N 37°48' W 122°19'0 0.1
2017-Feb-18 00:33N 37°48' W 122°19'2 1.6
2017-Feb-17 23:34N 37°49' W 122°19'0 0.0
2017-Feb-17 22:34N 37°49' W 122°19'0 0.0
2017-Feb-17 21:34N 37°49' W 122°19'3 2.8
2017-Feb-17 20:34N 37°48' W 122°22'3 3.3
2017-Feb-17 19:34N 37°48' W 122°18'0 0.2
2017-Feb-17 18:34N 37°48' W 122°18'0 0.0
2017-Feb-17 17:34N 37°48' W 122°18'1 0.7
2017-Feb-17 16:34N 37°48' W 122°19'4 3.7
2017-Feb-17 15:34N 37°46' W 122°23'0 0.0
2017-Feb-17 14:33N 37°46' W 122°23'0 0.2
2017-Feb-17 13:34N 37°46' W 122°23'0 0.2
2017-Feb-17 12:34N 37°46' W 122°23'5 4.8
2017-Feb-17 11:33N 37°49' W 122°19'0 0.0
2017-Feb-17 10:33N 37°49' W 122°19'0 0.0
2017-Feb-17 09:34N 37°49' W 122°19'0 0.0
2017-Feb-17 08:33N 37°49' W 122°19'0 0.0
2017-Feb-17 07:34N 37°49' W 122°19'0 0.0
2017-Feb-17 06:33N 37°49' W 122°19'0 0.0
2017-Feb-17 05:33N 37°49' W 122°19'0 0.0
2017-Feb-17 04:34N 37°49' W 122°19'0 0.0
2017-Feb-17 03:33N 37°49' W 122°19'1 1.0
2017-Feb-17 02:34N 37°49' W 122°20'0 0.5
2017-Feb-17 01:34N 37°49' W 122°20'1 1.4
2017-Feb-17 00:34N 37°49' W 122°19'0 0.0
2017-Feb-16 23:33N 37°49' W 122°19'0 0.0
2017-Feb-16 22:33N 37°49' W 122°19'0 0.0
2017-Feb-16 21:33N 37°49' W 122°19'0 0.0
2017-Feb-16 20:34N 37°49' W 122°19'0 0.0
2017-Feb-16 19:34N 37°49' W 122°19'0 0.0
2017-Feb-16 18:33N 37°49' W 122°19'0 0.0
2017-Feb-16 17:34N 37°49' W 122°19'0 0.0
2017-Feb-16 16:33N 37°49' W 122°19'0 0.3
2017-Feb-16 15:33N 37°49' W 122°19'2 2.1
2017-Feb-16 14:34N 37°48' W 122°21'1 1.2
2017-Feb-16 13:34N 37°49' W 122°20'0 0.2
2017-Feb-16 12:34N 37°49' W 122°20'0 0.0
2017-Feb-16 11:34N 37°49' W 122°20'0 0.0
2017-Feb-16 10:34N 37°49' W 122°20'0 0.0
2017-Feb-16 09:33N 37°49' W 122°20'0 0.0
2017-Feb-16 08:33N 37°49' W 122°20'0 0.0
2017-Feb-16 07:33N 37°49' W 122°20'0 0.3
2017-Feb-16 06:33N 37°48' W 122°20'1 0.7
2017-Feb-16 05:34N 37°48' W 122°21'2 2.3
2017-Feb-16 04:34N 37°49' W 122°19'0 0.0
2017-Feb-16 03:34N 37°49' W 122°19'0 0.0
2017-Feb-16 02:33N 37°49' W 122°19'0 0.0
2017-Feb-16 01:33N 37°49' W 122°19'0 0.0
2017-Feb-16 00:34N 37°49' W 122°19'0 0.0
2017-Feb-15 23:33N 37°49' W 122°19'0 0.0
2017-Feb-15 22:34N 37°49' W 122°19'0 0.0
2017-Feb-15 21:34N 37°49' W 122°19'0 0.0
2017-Feb-15 20:33N 37°49' W 122°19'0 0.0
2017-Feb-15 19:33N 37°49' W 122°19'0 0.0
2017-Feb-15 18:34N 37°49' W 122°19'0 0.0
2017-Feb-15 17:33N 37°49' W 122°19'0 0.0
2017-Feb-15 16:34N 37°49' W 122°19'0 0.4
2017-Feb-15 15:34N 37°49' W 122°19'2 1.5
2017-Feb-15 14:33N 37°48' W 122°18'1 0.8
2017-Feb-15 13:33N 37°48' W 122°19'1 1.0
2017-Feb-15 12:33N 37°49' W 122°20'0 0.0
2017-Feb-15 11:33N 37°49' W 122°20'0 0.0
2017-Feb-15 10:34N 37°49' W 122°20'0 0.0
2017-Feb-15 09:34N 37°49' W 122°20'0 0.0
2017-Feb-15 08:33N 37°49' W 122°20'0 0.0
2017-Feb-15 07:34N 37°49' W 122°20'4 4.1
2017-Feb-15 06:33N 37°52' W 122°24'3 2.9
2017-Feb-15 05:34N 37°54' W 122°22'3 2.5
2017-Feb-15 04:34N 37°53' W 122°25'2 1.6
2017-Feb-15 03:33N 37°55' W 122°23'0 0.0
2017-Feb-15 02:34N 37°54' W 122°23'0 0.0
2017-Feb-15 01:33N 37°54' W 122°23'5 5.1
2017-Feb-15 00:34N 37°50' W 122°22'1 1.5
2017-Feb-14 23:33N 37°48' W 122°22'3 3.0
2017-Feb-14 22:33N 37°49' W 122°19'0 0.0
2017-Feb-14 21:33N 37°49' W 122°19'0 0.0
2017-Feb-14 20:33N 37°49' W 122°19'0 0.0
2017-Feb-14 19:33N 37°49' W 122°19'0 0.0
2017-Feb-14 18:33N 37°49' W 122°19'0 0.0
2017-Feb-14 17:34N 37°49' W 122°19'0 0.0
2017-Feb-14 16:34N 37°49' W 122°19'0 0.0
2017-Feb-14 15:33N 37°49' W 122°19'1 1.1
2017-Feb-14 14:34N 37°49' W 122°20'1 1.2
2017-Feb-14 13:34N 37°48' W 122°21'1 0.6
2017-Feb-14 12:33N 37°48' W 122°21'0 0.0
2017-Feb-14 11:34N 37°48' W 122°21'2 1.8
2017-Feb-14 10:34N 37°49' W 122°19'0 0.0
2017-Feb-14 09:34N 37°49' W 122°19'0 0.0
2017-Feb-14 08:33N 37°49' W 122°19'0 0.0
2017-Feb-14 07:34N 37°49' W 122°19'0 0.0
2017-Feb-14 06:34N 37°49' W 122°19'0 0.0
2017-Feb-14 05:34N 37°49' W 122°19'0 0.0
2017-Feb-14 04:34N 37°49' W 122°19'0 0.0
2017-Feb-14 03:34N 37°49' W 122°19'0 0.0
2017-Feb-14 02:34N 37°49' W 122°19'0 0.0
2017-Feb-14 01:33N 37°49' W 122°19'0 0.0
2017-Feb-14 00:33N 37°49' W 122°19'0 0.0
2017-Feb-13 23:34N 37°49' W 122°19'0 0.0
2017-Feb-13 22:34N 37°49' W 122°19'0 0.0
2017-Feb-13 21:33N 37°49' W 122°19'0 0.0
2017-Feb-13 20:33N 37°49' W 122°19'0 0.0
2017-Feb-13 19:33N 37°49' W 122°19'0 0.0
2017-Feb-13 18:34N 37°49' W 122°19'0 0.0
2017-Feb-13 17:33N 37°49' W 122°19'0 0.0
2017-Feb-13 16:34N 37°49' W 122°19'2 1.9
2017-Feb-13 15:34N 37°48' W 122°21'7 7.1
2017-Feb-13 14:33N 37°48' W 122°30'8 7.9
2017-Feb-13 13:33N 37°55' W 122°27'1010.2
2017-Feb-13 12:33N 38°03' W 122°18'6 5.5
2017-Feb-13 11:30N 38°03' W 122°11'2 0.3
2017-Feb-13 02:26N 38°03' W 122°08'0 0.0
2017-Feb-12 19:17N 38°03' W 122°08'0 0.0
2017-Feb-12 07:16N 38°02' W 122°08'0 0.1
2017-Feb-12 05:30N 38°03' W 122°08'0 0.0
2017-Feb-11 20:27N 38°02' W 122°08'8 4.0
2017-Feb-11 18:33N 38°03' W 122°18'2 1.1
2017-Feb-11 16:26N 38°03' W 122°15'0 0.0
2017-Feb-11 15:25N 38°03' W 122°15'0 0.0
2017-Feb-11 14:21N 38°03' W 122°15'0 0.0
2017-Feb-11 13:20N 38°03' W 122°15'0 0.0
2017-Feb-11 07:19N 38°03' W 122°15'810.3
2017-Feb-11 06:34N 38°01' W 122°24'5 5.3
2017-Feb-11 05:33N 37°55' W 122°25'0 0.3
2017-Feb-11 04:34N 37°55' W 122°25'1 1.4
2017-Feb-11 03:33N 37°55' W 122°23'0 0.4
2017-Feb-11 02:33N 37°54' W 122°24'6 6.4
2017-Feb-11 01:34N 37°49' W 122°20'1 0.8
2017-Feb-11 00:34N 37°49' W 122°20'1 0.9
2017-Feb-10 23:33N 37°48' W 122°21'2 1.8
2017-Feb-10 22:34N 37°49' W 122°19'0 0.0
2017-Feb-10 21:33N 37°49' W 122°19'0 0.0
2017-Feb-10 20:33N 37°49' W 122°19'2 1.8
2017-Feb-10 19:34N 37°48' W 122°18'0 0.2
2017-Feb-10 18:33N 37°48' W 122°18'2 1.8
2017-Feb-10 17:34N 37°49' W 122°19'0 0.0
2017-Feb-10 16:33N 37°49' W 122°19'0 0.0
2017-Feb-10 15:34N 37°49' W 122°19'0 0.0
2017-Feb-10 14:34N 37°49' W 122°19'0 0.0
2017-Feb-10 13:33N 37°49' W 122°19'0 0.0
2017-Feb-10 12:34N 37°49' W 122°19'0 0.0
2017-Feb-10 11:33N 37°49' W 122°19'0 0.0
2017-Feb-10 10:33N 37°49' W 122°19'0 0.0
2017-Feb-10 09:33N 37°49' W 122°19'0 0.0
2017-Feb-10 08:33N 37°49' W 122°19'0 0.0
2017-Feb-10 07:34N 37°49' W 122°19'0 0.0
2017-Feb-10 06:34N 37°49' W 122°19'0 0.0
2017-Feb-10 05:34N 37°49' W 122°19'0 0.0
2017-Feb-10 04:34N 37°49' W 122°19'0 0.0
2017-Feb-10 03:34N 37°49' W 122°19'2 1.7
2017-Feb-10 02:34N 37°48' W 122°18'2 1.9
2017-Feb-10 01:34N 37°48' W 122°21'2 1.9
2017-Feb-10 00:34N 37°46' W 122°22'0 0.3
2017-Feb-09 23:33N 37°47' W 122°22'4 3.6
2017-Feb-09 22:34N 37°49' W 122°19'0 0.0
2017-Feb-09 21:33N 37°49' W 122°19'0 0.0
2017-Feb-09 20:33N 37°49' W 122°19'0 0.0
2017-Feb-09 19:33N 37°49' W 122°19'0 0.0
2017-Feb-09 18:33N 37°49' W 122°19'1 1.4
2017-Feb-09 17:33N 37°49' W 122°20'2 1.9
2017-Feb-09 16:34N 37°50' W 122°22'9 9.2
2017-Feb-09 15:33N 37°59' W 122°26'  
Track history (hours):
 
Tides and Currents Weather Stations Pressure Air Temp Water Temp Dewpoint Dewpoint Depression Visibility Wind Speed Wind Dir Waves Ship Positions

Sandra Hugh

Owner: Sortwell Inc., DBA AmNav Maritime Services, Oakland, CA. More information available from US FCC via Universal Licensing System and Coast Guard Vessel Documentation Center.

Last reported at 2017-Feb-19 11:34 UTC. Time now 2017-Feb-19 11:51 UTC.
Position N 37°49' W 122°19'.

Length 24 m; draft 4.9 m.

Type: Tug. MMSI: 367305920.

Date/timePositionNaut miles runAvg speedWind from/ knotsBaromVisibWave heightAir tempDewpointWater temp
2017-Feb-19 11:34N 37°49' W 122°19'0 0.0
2017-Feb-19 10:34N 37°49' W 122°19'0 0.0
2017-Feb-19 09:34N 37°49' W 122°19'0 0.0
2017-Feb-19 08:34N 37°49' W 122°19'0 0.0
2017-Feb-19 07:33N 37°49' W 122°19'0 0.0
2017-Feb-19 06:34N 37°49' W 122°19'0 0.0
2017-Feb-19 05:33N 37°49' W 122°19'0 0.0
2017-Feb-19 04:34N 37°49' W 122°19'0 0.0
2017-Feb-19 03:34N 37°49' W 122°19'0 0.0
2017-Feb-19 02:33N 37°49' W 122°19'0 0.0
2017-Feb-19 01:33N 37°49' W 122°19'0 0.0
2017-Feb-19 00:33N 37°49' W 122°19'0 0.0
2017-Feb-18 23:33N 37°49' W 122°19'0 0.0
2017-Feb-18 22:33N 37°49' W 122°19'2 1.6
2017-Feb-18 21:34N 37°49' W 122°20'3 2.5
2017-Feb-18 20:34N 37°48' W 122°17'4 3.6
2017-Feb-18 19:34N 37°48' W 122°22'3 2.7
2017-Feb-18 18:34N 37°49' W 122°19'0 0.0
2017-Feb-18 17:33N 37°49' W 122°19'0 0.0
2017-Feb-18 16:33N 37°49' W 122°19'1 0.9
2017-Feb-18 15:34N 37°49' W 122°19'1 1.2
2017-Feb-18 14:34N 37°48' W 122°19'1 1.1
2017-Feb-18 13:34N 37°48' W 122°17'4 3.8
2017-Feb-18 12:34N 37°48' W 122°22'3 2.8
2017-Feb-18 11:33N 37°49' W 122°19'0 0.0
2017-Feb-18 10:34N 37°49' W 122°19'0 0.0
2017-Feb-18 09:33N 37°49' W 122°19'0 0.0
2017-Feb-18 08:33N 37°49' W 122°19'0 0.0
2017-Feb-18 07:33N 37°49' W 122°19'0 0.0
2017-Feb-18 06:33N 37°49' W 122°19'0 0.0
2017-Feb-18 05:33N 37°49' W 122°19'0 0.0
2017-Feb-18 04:33N 37°49' W 122°19'0 0.0
2017-Feb-18 03:33N 37°49' W 122°19'2 1.9
2017-Feb-18 02:33N 37°48' W 122°18'1 0.8
2017-Feb-18 01:33N 37°48' W 122°19'0 0.1
2017-Feb-18 00:33N 37°48' W 122°19'2 1.6
2017-Feb-17 23:34N 37°49' W 122°19'0 0.0
2017-Feb-17 22:34N 37°49' W 122°19'0 0.0
2017-Feb-17 21:34N 37°49' W 122°19'3 2.8
2017-Feb-17 20:34N 37°48' W 122°22'3 3.3
2017-Feb-17 19:34N 37°48' W 122°18'0 0.2
2017-Feb-17 18:34N 37°48' W 122°18'0 0.0
2017-Feb-17 17:34N 37°48' W 122°18'1 0.7
2017-Feb-17 16:34N 37°48' W 122°19'4 3.7
2017-Feb-17 15:34N 37°46' W 122°23'0 0.0
2017-Feb-17 14:33N 37°46' W 122°23'0 0.2
2017-Feb-17 13:34N 37°46' W 122°23'0 0.2
2017-Feb-17 12:34N 37°46' W 122°23'5 4.8
2017-Feb-17 11:33N 37°49' W 122°19'0 0.0
2017-Feb-17 10:33N 37°49' W 122°19'0 0.0
2017-Feb-17 09:34N 37°49' W 122°19'0 0.0
2017-Feb-17 08:33N 37°49' W 122°19'0 0.0
2017-Feb-17 07:34N 37°49' W 122°19'0 0.0
2017-Feb-17 06:33N 37°49' W 122°19'0 0.0
2017-Feb-17 05:33N 37°49' W 122°19'0 0.0
2017-Feb-17 04:34N 37°49' W 122°19'0 0.0
2017-Feb-17 03:33N 37°49' W 122°19'1 1.0
2017-Feb-17 02:34N 37°49' W 122°20'0 0.5
2017-Feb-17 01:34N 37°49' W 122°20'1 1.4
2017-Feb-17 00:34N 37°49' W 122°19'0 0.0
2017-Feb-16 23:33N 37°49' W 122°19'0 0.0
2017-Feb-16 22:33N 37°49' W 122°19'0 0.0
2017-Feb-16 21:33N 37°49' W 122°19'0 0.0
2017-Feb-16 20:34N 37°49' W 122°19'0 0.0
2017-Feb-16 19:34N 37°49' W 122°19'0 0.0
2017-Feb-16 18:33N 37°49' W 122°19'0 0.0
2017-Feb-16 17:34N 37°49' W 122°19'0 0.0
2017-Feb-16 16:33N 37°49' W 122°19'0 0.3
2017-Feb-16 15:33N 37°49' W 122°19'2 2.1
2017-Feb-16 14:34N 37°48' W 122°21'1 1.2
2017-Feb-16 13:34N 37°49' W 122°20'0 0.2
2017-Feb-16 12:34N 37°49' W 122°20'0 0.0
2017-Feb-16 11:34N 37°49' W 122°20'0 0.0
2017-Feb-16 10:34N 37°49' W 122°20'0 0.0
2017-Feb-16 09:33N 37°49' W 122°20'0 0.0
2017-Feb-16 08:33N 37°49' W 122°20'0 0.0
2017-Feb-16 07:33N 37°49' W 122°20'0 0.3
2017-Feb-16 06:33N 37°48' W 122°20'1 0.7
2017-Feb-16 05:34N 37°48' W 122°21'2 2.3
2017-Feb-16 04:34N 37°49' W 122°19'0 0.0
2017-Feb-16 03:34N 37°49' W 122°19'0 0.0
2017-Feb-16 02:33N 37°49' W 122°19'0 0.0
2017-Feb-16 01:33N 37°49' W 122°19'0 0.0
2017-Feb-16 00:34N 37°49' W 122°19'0 0.0
2017-Feb-15 23:33N 37°49' W 122°19'0 0.0
2017-Feb-15 22:34N 37°49' W 122°19'0 0.0
2017-Feb-15 21:34N 37°49' W 122°19'0 0.0
2017-Feb-15 20:33N 37°49' W 122°19'0 0.0
2017-Feb-15 19:33N 37°49' W 122°19'0 0.0
2017-Feb-15 18:34N 37°49' W 122°19'0 0.0
2017-Feb-15 17:33N 37°49' W 122°19'0 0.0
2017-Feb-15 16:34N 37°49' W 122°19'0 0.4
2017-Feb-15 15:34N 37°49' W 122°19'2 1.5
2017-Feb-15 14:33N 37°48' W 122°18'1 0.8
2017-Feb-15 13:33N 37°48' W 122°19'1 1.0
2017-Feb-15 12:33N 37°49' W 122°20'0 0.0
2017-Feb-15 11:33N 37°49' W 122°20'0 0.0
2017-Feb-15 10:34N 37°49' W 122°20'0 0.0
2017-Feb-15 09:34N 37°49' W 122°20'0 0.0
2017-Feb-15 08:33N 37°49' W 122°20'0 0.0
2017-Feb-15 07:34N 37°49' W 122°20'4 4.1
2017-Feb-15 06:33N 37°52' W 122°24'3 2.9
2017-Feb-15 05:34N 37°54' W 122°22'3 2.5
2017-Feb-15 04:34N 37°53' W 122°25'2 1.6
2017-Feb-15 03:33N 37°55' W 122°23'0 0.0
2017-Feb-15 02:34N 37°54' W 122°23'0 0.0
2017-Feb-15 01:33N 37°54' W 122°23'5 5.1
2017-Feb-15 00:34N 37°50' W 122°22'1 1.5
2017-Feb-14 23:33N 37°48' W 122°22'3 3.0
2017-Feb-14 22:33N 37°49' W 122°19'0 0.0
2017-Feb-14 21:33N 37°49' W 122°19'0 0.0
2017-Feb-14 20:33N 37°49' W 122°19'0 0.0
2017-Feb-14 19:33N 37°49' W 122°19'0 0.0
2017-Feb-14 18:33N 37°49' W 122°19'0 0.0
2017-Feb-14 17:34N 37°49' W 122°19'0 0.0
2017-Feb-14 16:34N 37°49' W 122°19'0 0.0
2017-Feb-14 15:33N 37°49' W 122°19'1 1.1
2017-Feb-14 14:34N 37°49' W 122°20'1 1.2
2017-Feb-14 13:34N 37°48' W 122°21'1 0.6
2017-Feb-14 12:33N 37°48' W 122°21'0 0.0
2017-Feb-14 11:34N 37°48' W 122°21'2 1.8
2017-Feb-14 10:34N 37°49' W 122°19'0 0.0
2017-Feb-14 09:34N 37°49' W 122°19'0 0.0
2017-Feb-14 08:33N 37°49' W 122°19'0 0.0
2017-Feb-14 07:34N 37°49' W 122°19'0 0.0
2017-Feb-14 06:34N 37°49' W 122°19'0 0.0
2017-Feb-14 05:34N 37°49' W 122°19'0 0.0
2017-Feb-14 04:34N 37°49' W 122°19'0 0.0
2017-Feb-14 03:34N 37°49' W 122°19'0 0.0
2017-Feb-14 02:34N 37°49' W 122°19'0 0.0
2017-Feb-14 01:33N 37°49' W 122°19'0 0.0
2017-Feb-14 00:33N 37°49' W 122°19'0 0.0
2017-Feb-13 23:34N 37°49' W 122°19'0 0.0
2017-Feb-13 22:34N 37°49' W 122°19'0 0.0
2017-Feb-13 21:33N 37°49' W 122°19'0 0.0
2017-Feb-13 20:33N 37°49' W 122°19'0 0.0
2017-Feb-13 19:33N 37°49' W 122°19'0 0.0
2017-Feb-13 18:34N 37°49' W 122°19'0 0.0
2017-Feb-13 17:33N 37°49' W 122°19'0 0.0
2017-Feb-13 16:34N 37°49' W 122°19'2 1.9
2017-Feb-13 15:34N 37°48' W 122°21'7 7.1
2017-Feb-13 14:33N 37°48' W 122°30'8 7.9
2017-Feb-13 13:33N 37°55' W 122°27'1010.2
2017-Feb-13 12:33N 38°03' W 122°18'6 5.5
2017-Feb-13 11:30N 38°03' W 122°11'2 0.3
2017-Feb-13 02:26N 38°03' W 122°08'0 0.0
2017-Feb-12 19:17N 38°03' W 122°08'0 0.0
2017-Feb-12 07:16N 38°02' W 122°08'0 0.1
2017-Feb-12 05:30N 38°03' W 122°08'0 0.0
2017-Feb-11 20:27N 38°02' W 122°08'8 4.0
2017-Feb-11 18:33N 38°03' W 122°18'2 1.1
2017-Feb-11 16:26N 38°03' W 122°15'0 0.0
2017-Feb-11 15:25N 38°03' W 122°15'0 0.0
2017-Feb-11 14:21N 38°03' W 122°15'0 0.0
2017-Feb-11 13:20N 38°03' W 122°15'0 0.0
2017-Feb-11 07:19N 38°03' W 122°15'810.3
2017-Feb-11 06:34N 38°01' W 122°24'5 5.3
2017-Feb-11 05:33N 37°55' W 122°25'0 0.3
2017-Feb-11 04:34N 37°55' W 122°25'1 1.4
2017-Feb-11 03:33N 37°55' W 122°23'0 0.4
2017-Feb-11 02:33N 37°54' W 122°24'6 6.4
2017-Feb-11 01:34N 37°49' W 122°20'1 0.8
2017-Feb-11 00:34N 37°49' W 122°20'1 0.9
2017-Feb-10 23:33N 37°48' W 122°21'2 1.8
2017-Feb-10 22:34N 37°49' W 122°19'0 0.0
2017-Feb-10 21:33N 37°49' W 122°19'0 0.0
2017-Feb-10 20:33N 37°49' W 122°19'2 1.8
2017-Feb-10 19:34N 37°48' W 122°18'0 0.2
2017-Feb-10 18:33N 37°48' W 122°18'2 1.8
2017-Feb-10 17:34N 37°49' W 122°19'0 0.0
2017-Feb-10 16:33N 37°49' W 122°19'0 0.0
2017-Feb-10 15:34N 37°49' W 122°19'0 0.0
2017-Feb-10 14:34N 37°49' W 122°19'0 0.0
2017-Feb-10 13:33N 37°49' W 122°19'0 0.0
2017-Feb-10 12:34N 37°49' W 122°19'0 0.0
2017-Feb-10 11:33N 37°49' W 122°19'0 0.0
2017-Feb-10 10:33N 37°49' W 122°19'0 0.0
2017-Feb-10 09:33N 37°49' W 122°19'0 0.0
2017-Feb-10 08:33N 37°49' W 122°19'0 0.0
2017-Feb-10 07:34N 37°49' W 122°19'0 0.0
2017-Feb-10 06:34N 37°49' W 122°19'0 0.0
2017-Feb-10 05:34N 37°49' W 122°19'0 0.0
2017-Feb-10 04:34N 37°49' W 122°19'0 0.0
2017-Feb-10 03:34N 37°49' W 122°19'2 1.7
2017-Feb-10 02:34N 37°48' W 122°18'2 1.9
2017-Feb-10 01:34N 37°48' W 122°21'2 1.9
2017-Feb-10 00:34N 37°46' W 122°22'0 0.3
2017-Feb-09 23:33N 37°47' W 122°22'4 3.6
2017-Feb-09 22:34N 37°49' W 122°19'0 0.0
2017-Feb-09 21:33N 37°49' W 122°19'0 0.0
2017-Feb-09 20:33N 37°49' W 122°19'0 0.0
2017-Feb-09 19:33N 37°49' W 122°19'0 0.0
2017-Feb-09 18:33N 37°49' W 122°19'1 1.4
2017-Feb-09 17:33N 37°49' W 122°20'2 1.9
2017-Feb-09 16:34N 37°50' W 122°22'9 9.2
2017-Feb-09 15:33N 37°59' W 122°26'  

Dump ship's entire track history